sensor_id;sensor_type;location;lat;lon;timestamp;temperature;humidity
26505;DHT22;19493;48.042;7.584;2023-11-21T00:02:04;8.80;99.90
26505;DHT22;19493;48.042;7.584;2023-11-21T00:04:30;8.80;99.90
26505;DHT22;19493;48.042;7.584;2023-11-21T00:06:56;8.80;99.90
26505;DHT22;19493;48.042;7.584;2023-11-21T00:09:21;8.80;99.90
26505;DHT22;19493;48.042;7.584;2023-11-21T00:11:47;8.80;99.90
26505;DHT22;19493;48.042;7.584;2023-11-21T00:14:12;8.80;99.90
26505;DHT22;19493;48.042;7.584;2023-11-21T00:16:40;8.70;99.90
26505;DHT22;19493;48.042;7.584;2023-11-21T00:19:06;8.70;99.90
26505;DHT22;19493;48.042;7.584;2023-11-21T00:21:32;8.70;99.90
26505;DHT22;19493;48.042;7.584;2023-11-21T00:23:57;8.70;99.90
26505;DHT22;19493;48.042;7.584;2023-11-21T00:26:23;8.70;99.90
26505;DHT22;19493;48.042;7.584;2023-11-21T00:28:50;8.70;99.90
26505;DHT22;19493;48.042;7.584;2023-11-21T00:31:16;8.70;99.90
26505;DHT22;19493;48.042;7.584;2023-11-21T00:33:42;8.70;99.90
26505;DHT22;19493;48.042;7.584;2023-11-21T00:36:08;8.70;99.90
26505;DHT22;19493;48.042;7.584;2023-11-21T00:38:35;8.70;99.90
26505;DHT22;19493;48.042;7.584;2023-11-21T00:41:01;8.70;99.90
26505;DHT22;19493;48.042;7.584;2023-11-21T00:43:26;8.70;99.90
26505;DHT22;19493;48.042;7.584;2023-11-21T00:45:52;8.70;99.90
26505;DHT22;19493;48.042;7.584;2023-11-21T00:48:17;8.70;99.90
26505;DHT22;19493;48.042;7.584;2023-11-21T00:50:44;8.70;99.90
26505;DHT22;19493;48.042;7.584;2023-11-21T00:53:09;8.70;99.90
26505;DHT22;19493;48.042;7.584;2023-11-21T00:55:36;8.70;99.90
26505;DHT22;19493;48.042;7.584;2023-11-21T00:58:02;8.70;99.90
26505;DHT22;19493;48.042;7.584;2023-11-21T01:00:29;8.70;99.90
26505;DHT22;19493;48.042;7.584;2023-11-21T01:02:55;8.70;99.90
26505;DHT22;19493;48.042;7.584;2023-11-21T01:05:20;8.70;99.90
26505;DHT22;19493;48.042;7.584;2023-11-21T01:07:46;8.70;99.90
26505;DHT22;19493;48.042;7.584;2023-11-21T01:10:12;8.60;99.90
26505;DHT22;19493;48.042;7.584;2023-11-21T01:12:38;8.50;99.90
26505;DHT22;19493;48.042;7.584;2023-11-21T01:15:05;8.40;99.90
26505;DHT22;19493;48.042;7.584;2023-11-21T01:17:33;8.30;99.90
26505;DHT22;19493;48.042;7.584;2023-11-21T01:20:00;8.30;99.90
26505;DHT22;19493;48.042;7.584;2023-11-21T01:22:25;8.20;99.90
26505;DHT22;19493;48.042;7.584;2023-11-21T01:24:54;8.10;99.90
26505;DHT22;19493;48.042;7.584;2023-11-21T01:27:21;8.20;99.90
26505;DHT22;19493;48.042;7.584;2023-11-21T01:29:46;8.20;99.90
26505;DHT22;19493;48.042;7.584;2023-11-21T01:32:12;8.20;99.90
26505;DHT22;19493;48.042;7.584;2023-11-21T01:34:38;8.20;99.90
26505;DHT22;19493;48.042;7.584;2023-11-21T01:37:03;8.20;99.90
26505;DHT22;19493;48.042;7.584;2023-11-21T01:39:31;8.30;99.90
26505;DHT22;19493;48.042;7.584;2023-11-21T01:41:57;8.30;99.90
26505;DHT22;19493;48.042;7.584;2023-11-21T01:44:24;8.40;99.90
26505;DHT22;19493;48.042;7.584;2023-11-21T01:46:50;8.50;99.90
26505;DHT22;19493;48.042;7.584;2023-11-21T01:49:17;8.50;99.90
26505;DHT22;19493;48.042;7.584;2023-11-21T01:51:47;8.60;99.90
26505;DHT22;19493;48.042;7.584;2023-11-21T01:54:15;8.70;99.90
26505;DHT22;19493;48.042;7.584;2023-11-21T01:56:40;8.70;99.90
26505;DHT22;19493;48.042;7.584;2023-11-21T01:59:06;8.70;99.90
26505;DHT22;19493;48.042;7.584;2023-11-21T02:01:33;8.70;99.90
26505;DHT22;19493;48.042;7.584;2023-11-21T02:03:59;8.80;99.90
26505;DHT22;19493;48.042;7.584;2023-11-21T02:06:25;8.80;99.90
26505;DHT22;19493;48.042;7.584;2023-11-21T02:08:51;8.70;99.90
26505;DHT22;19493;48.042;7.584;2023-11-21T02:11:17;8.70;99.90
26505;DHT22;19493;48.042;7.584;2023-11-21T02:13:44;8.70;99.90
26505;DHT22;19493;48.042;7.584;2023-11-21T02:16:11;8.70;99.90
26505;DHT22;19493;48.042;7.584;2023-11-21T02:18:39;8.70;99.90
26505;DHT22;19493;48.042;7.584;2023-11-21T02:21:05;8.70;99.90
26505;DHT22;19493;48.042;7.584;2023-11-21T02:23:30;8.80;99.90
26505;DHT22;19493;48.042;7.584;2023-11-21T02:25:56;8.80;99.90
26505;DHT22;19493;48.042;7.584;2023-11-21T02:28:22;8.90;99.90
26505;DHT22;19493;48.042;7.584;2023-11-21T02:30:52;8.90;99.90
26505;DHT22;19493;48.042;7.584;2023-11-21T02:33:21;8.80;99.90
26505;DHT22;19493;48.042;7.584;2023-11-21T02:35:47;8.80;99.90
26505;DHT22;19493;48.042;7.584;2023-11-21T02:38:12;8.80;99.90
26505;DHT22;19493;48.042;7.584;2023-11-21T02:40:39;8.70;99.90
26505;DHT22;19493;48.042;7.584;2023-11-21T02:43:04;8.60;99.90
26505;DHT22;19493;48.042;7.584;2023-11-21T02:45:31;8.60;99.90
26505;DHT22;19493;48.042;7.584;2023-11-21T02:47:57;8.50;99.90
26505;DHT22;19493;48.042;7.584;2023-11-21T02:50:23;8.50;99.90
26505;DHT22;19493;48.042;7.584;2023-11-21T02:52:48;8.50;99.90
26505;DHT22;19493;48.042;7.584;2023-11-21T02:55:14;8.50;99.90
26505;DHT22;19493;48.042;7.584;2023-11-21T02:57:40;8.40;99.90
26505;DHT22;19493;48.042;7.584;2023-11-21T03:00:06;8.30;99.90
26505;DHT22;19493;48.042;7.584;2023-11-21T03:02:41;8.30;99.90
26505;DHT22;19493;48.042;7.584;2023-11-21T03:05:07;8.30;99.90
26505;DHT22;19493;48.042;7.584;2023-11-21T03:07:39;8.40;99.90
26505;DHT22;19493;48.042;7.584;2023-11-21T03:10:06;8.40;99.90
26505;DHT22;19493;48.042;7.584;2023-11-21T03:12:34;8.40;99.90
26505;DHT22;19493;48.042;7.584;2023-11-21T03:15:00;8.50;99.90
26505;DHT22;19493;48.042;7.584;2023-11-21T03:17:27;8.50;99.90
26505;DHT22;19493;48.042;7.584;2023-11-21T03:19:52;8.50;99.90
26505;DHT22;19493;48.042;7.584;2023-11-21T03:22:18;8.60;99.90
26505;DHT22;19493;48.042;7.584;2023-11-21T03:24:44;8.60;99.90
26505;DHT22;19493;48.042;7.584;2023-11-21T03:27:10;8.60;99.90
26505;DHT22;19493;48.042;7.584;2023-11-21T03:29:35;8.60;99.90
26505;DHT22;19493;48.042;7.584;2023-11-21T03:32:01;8.60;99.90
26505;DHT22;19493;48.042;7.584;2023-11-21T03:34:27;8.60;99.90
26505;DHT22;19493;48.042;7.584;2023-11-21T03:36:53;8.60;99.90
26505;DHT22;19493;48.042;7.584;2023-11-21T03:39:23;8.60;99.90
26505;DHT22;19493;48.042;7.584;2023-11-21T03:41:49;8.70;99.90
26505;DHT22;19493;48.042;7.584;2023-11-21T03:44:14;8.70;99.90
26505;DHT22;19493;48.042;7.584;2023-11-21T03:46:40;8.70;99.90
26505;DHT22;19493;48.042;7.584;2023-11-21T03:49:06;8.70;99.90
26505;DHT22;19493;48.042;7.584;2023-11-21T03:51:33;8.70;99.90
26505;DHT22;19493;48.042;7.584;2023-11-21T03:53:59;8.70;99.90
26505;DHT22;19493;48.042;7.584;2023-11-21T03:56:25;8.70;99.90
26505;DHT22;19493;48.042;7.584;2023-11-21T03:58:50;8.70;99.90
26505;DHT22;19493;48.042;7.584;2023-11-21T04:01:22;8.70;99.90
26505;DHT22;19493;48.042;7.584;2023-11-21T04:03:49;8.70;99.90
26505;DHT22;19493;48.042;7.584;2023-11-21T04:06:15;8.70;99.90
26505;DHT22;19493;48.042;7.584;2023-11-21T04:08:40;8.70;99.90
26505;DHT22;19493;48.042;7.584;2023-11-21T04:11:06;8.70;99.90
26505;DHT22;19493;48.042;7.584;2023-11-21T04:13:31;8.70;99.90
26505;DHT22;19493;48.042;7.584;2023-11-21T04:15:57;8.70;99.90
26505;DHT22;19493;48.042;7.584;2023-11-21T04:18:22;8.70;99.90
26505;DHT22;19493;48.042;7.584;2023-11-21T04:20:51;8.70;99.90
26505;DHT22;19493;48.042;7.584;2023-11-21T04:23:17;8.70;99.90
26505;DHT22;19493;48.042;7.584;2023-11-21T04:25:44;8.70;99.90
26505;DHT22;19493;48.042;7.584;2023-11-21T04:28:10;8.70;99.90
26505;DHT22;19493;48.042;7.584;2023-11-21T04:30:35;8.60;99.90
26505;DHT22;19493;48.042;7.584;2023-11-21T04:33:01;8.60;99.90
26505;DHT22;19493;48.042;7.584;2023-11-21T04:35:28;8.70;99.90
26505;DHT22;19493;48.042;7.584;2023-11-21T04:37:53;8.60;99.90
26505;DHT22;19493;48.042;7.584;2023-11-21T04:40:19;8.60;99.90
26505;DHT22;19493;48.042;7.584;2023-11-21T04:42:46;8.50;99.90
26505;DHT22;19493;48.042;7.584;2023-11-21T04:45:12;8.50;99.90
26505;DHT22;19493;48.042;7.584;2023-11-21T04:47:37;8.50;99.90
26505;DHT22;19493;48.042;7.584;2023-11-21T04:50:04;8.50;99.90
26505;DHT22;19493;48.042;7.584;2023-11-21T04:52:30;8.40;99.90
26505;DHT22;19493;48.042;7.584;2023-11-21T04:54:55;8.40;99.90
26505;DHT22;19493;48.042;7.584;2023-11-21T04:57:23;8.40;99.90
26505;DHT22;19493;48.042;7.584;2023-11-21T04:59:49;8.40;99.90
26505;DHT22;19493;48.042;7.584;2023-11-21T05:02:16;8.40;99.90
26505;DHT22;19493;48.042;7.584;2023-11-21T05:04:41;8.30;99.90
26505;DHT22;19493;48.042;7.584;2023-11-21T05:07:08;8.30;99.90
26505;DHT22;19493;48.042;7.584;2023-11-21T05:09:33;8.30;99.90
26505;DHT22;19493;48.042;7.584;2023-11-21T05:11:59;8.30;99.90
26505;DHT22;19493;48.042;7.584;2023-11-21T05:14:25;8.30;99.90
26505;DHT22;19493;48.042;7.584;2023-11-21T05:16:51;8.30;99.90
26505;DHT22;19493;48.042;7.584;2023-11-21T05:19:17;8.30;99.90
26505;DHT22;19493;48.042;7.584;2023-11-21T05:21:43;8.30;99.90
26505;DHT22;19493;48.042;7.584;2023-11-21T05:24:08;8.30;99.90
26505;DHT22;19493;48.042;7.584;2023-11-21T05:26:35;8.30;99.90
26505;DHT22;19493;48.042;7.584;2023-11-21T05:29:00;8.30;99.90
26505;DHT22;19493;48.042;7.584;2023-11-21T05:31:26;8.30;99.90
26505;DHT22;19493;48.042;7.584;2023-11-21T05:33:52;8.20;99.90
26505;DHT22;19493;48.042;7.584;2023-11-21T05:36:18;8.20;99.90
26505;DHT22;19493;48.042;7.584;2023-11-21T05:38:44;8.10;99.90
26505;DHT22;19493;48.042;7.584;2023-11-21T05:41:09;8.10;99.90
26505;DHT22;19493;48.042;7.584;2023-11-21T05:43:39;8.00;99.90
26505;DHT22;19493;48.042;7.584;2023-11-21T05:46:05;8.00;99.90
26505;DHT22;19493;48.042;7.584;2023-11-21T05:48:32;7.90;99.90
26505;DHT22;19493;48.042;7.584;2023-11-21T05:50:58;7.90;99.90
26505;DHT22;19493;48.042;7.584;2023-11-21T05:53:24;7.90;99.90
26505;DHT22;19493;48.042;7.584;2023-11-21T05:55:50;8.00;99.90
26505;DHT22;19493;48.042;7.584;2023-11-21T05:58:16;8.00;99.90
26505;DHT22;19493;48.042;7.584;2023-11-21T06:00:41;8.00;99.90
26505;DHT22;19493;48.042;7.584;2023-11-21T06:03:07;8.10;99.90
26505;DHT22;19493;48.042;7.584;2023-11-21T06:05:33;8.10;99.90
26505;DHT22;19493;48.042;7.584;2023-11-21T06:07:59;8.10;99.90
26505;DHT22;19493;48.042;7.584;2023-11-21T06:10:26;8.10;99.90
26505;DHT22;19493;48.042;7.584;2023-11-21T06:12:52;8.10;99.90
26505;DHT22;19493;48.042;7.584;2023-11-21T06:15:18;8.10;99.90
26505;DHT22;19493;48.042;7.584;2023-11-21T06:17:48;8.10;99.90
26505;DHT22;19493;48.042;7.584;2023-11-21T06:20:18;8.10;99.90
26505;DHT22;19493;48.042;7.584;2023-11-21T06:22:46;8.00;99.90
26505;DHT22;19493;48.042;7.584;2023-11-21T06:25:13;7.90;99.90
26505;DHT22;19493;48.042;7.584;2023-11-21T06:27:43;7.80;99.90
26505;DHT22;19493;48.042;7.584;2023-11-21T06:30:11;7.80;99.90
26505;DHT22;19493;48.042;7.584;2023-11-21T06:32:37;7.80;99.90
26505;DHT22;19493;48.042;7.584;2023-11-21T06:35:04;7.80;99.90
26505;DHT22;19493;48.042;7.584;2023-11-21T06:37:30;7.90;99.90
26505;DHT22;19493;48.042;7.584;2023-11-21T06:39:57;7.90;99.90
26505;DHT22;19493;48.042;7.584;2023-11-21T06:42:24;7.80;99.90
26505;DHT22;19493;48.042;7.584;2023-11-21T06:44:50;7.90;99.90
26505;DHT22;19493;48.042;7.584;2023-11-21T06:47:25;7.90;99.90
26505;DHT22;19493;48.042;7.584;2023-11-21T06:49:52;7.90;99.90
26505;DHT22;19493;48.042;7.584;2023-11-21T06:52:18;7.90;99.90
26505;DHT22;19493;48.042;7.584;2023-11-21T06:54:44;7.90;99.90
26505;DHT22;19493;48.042;7.584;2023-11-21T06:57:11;8.00;99.90
26505;DHT22;19493;48.042;7.584;2023-11-21T06:59:36;8.00;99.90
26505;DHT22;19493;48.042;7.584;2023-11-21T07:02:02;8.00;99.90
26505;DHT22;19493;48.042;7.584;2023-11-21T07:04:27;8.00;99.90
26505;DHT22;19493;48.042;7.584;2023-11-21T07:06:54;8.10;99.90
26505;DHT22;19493;48.042;7.584;2023-11-21T07:09:20;8.10;99.90
26505;DHT22;19493;48.042;7.584;2023-11-21T07:11:49;8.10;99.90
26505;DHT22;19493;48.042;7.584;2023-11-21T07:14:15;8.20;99.90
26505;DHT22;19493;48.042;7.584;2023-11-21T07:16:42;8.20;99.90
26505;DHT22;19493;48.042;7.584;2023-11-21T07:19:08;8.20;99.90
26505;DHT22;19493;48.042;7.584;2023-11-21T07:21:34;8.20;99.90
26505;DHT22;19493;48.042;7.584;2023-11-21T07:24:00;8.30;99.90
26505;DHT22;19493;48.042;7.584;2023-11-21T07:26:27;8.30;99.90
26505;DHT22;19493;48.042;7.584;2023-11-21T07:28:53;8.30;99.90
26505;DHT22;19493;48.042;7.584;2023-11-21T07:31:19;8.30;99.90
26505;DHT22;19493;48.042;7.584;2023-11-21T07:33:46;8.30;99.90
26505;DHT22;19493;48.042;7.584;2023-11-21T07:36:15;8.40;99.90
26505;DHT22;19493;48.042;7.584;2023-11-21T07:38:41;8.40;99.90
26505;DHT22;19493;48.042;7.584;2023-11-21T07:41:08;8.50;99.90
26505;DHT22;19493;48.042;7.584;2023-11-21T07:43:37;8.50;99.90
26505;DHT22;19493;48.042;7.584;2023-11-21T07:46:04;8.60;99.90
26505;DHT22;19493;48.042;7.584;2023-11-21T07:48:30;8.60;99.90
26505;DHT22;19493;48.042;7.584;2023-11-21T07:50:57;8.60;99.90
26505;DHT22;19493;48.042;7.584;2023-11-21T07:53:26;8.70;99.90
26505;DHT22;19493;48.042;7.584;2023-11-21T07:56:08;8.70;99.90
26505;DHT22;19493;48.042;7.584;2023-11-21T07:58:35;8.80;99.90
26505;DHT22;19493;48.042;7.584;2023-11-21T08:01:01;8.80;99.90
26505;DHT22;19493;48.042;7.584;2023-11-21T08:03:27;8.90;99.90
26505;DHT22;19493;48.042;7.584;2023-11-21T08:05:53;8.90;99.90
26505;DHT22;19493;48.042;7.584;2023-11-21T08:08:19;8.90;99.90
26505;DHT22;19493;48.042;7.584;2023-11-21T08:10:45;9.00;99.90
26505;DHT22;19493;48.042;7.584;2023-11-21T08:13:14;9.00;99.90
26505;DHT22;19493;48.042;7.584;2023-11-21T08:15:41;9.10;99.90
26505;DHT22;19493;48.042;7.584;2023-11-21T08:18:10;9.10;99.90
26505;DHT22;19493;48.042;7.584;2023-11-21T08:20:44;9.20;99.90
26505;DHT22;19493;48.042;7.584;2023-11-21T08:23:14;9.20;99.90
26505;DHT22;19493;48.042;7.584;2023-11-21T08:25:42;9.30;99.90
26505;DHT22;19493;48.042;7.584;2023-11-21T08:28:08;9.30;99.90
26505;DHT22;19493;48.042;7.584;2023-11-21T08:30:33;9.40;99.90
26505;DHT22;19493;48.042;7.584;2023-11-21T08:33:00;9.50;99.90
26505;DHT22;19493;48.042;7.584;2023-11-21T08:35:25;9.50;99.90
26505;DHT22;19493;48.042;7.584;2023-11-21T08:37:52;9.60;99.90
26505;DHT22;19493;48.042;7.584;2023-11-21T08:40:20;9.70;99.90
26505;DHT22;19493;48.042;7.584;2023-11-21T08:42:46;9.90;99.90
26505;DHT22;19493;48.042;7.584;2023-11-21T08:45:16;10.10;99.90
26505;DHT22;19493;48.042;7.584;2023-11-21T08:47:43;10.20;99.90
26505;DHT22;19493;48.042;7.584;2023-11-21T08:50:10;10.40;99.90
26505;DHT22;19493;48.042;7.584;2023-11-21T08:52:40;10.50;99.90
26505;DHT22;19493;48.042;7.584;2023-11-21T08:55:07;10.70;99.90
26505;DHT22;19493;48.042;7.584;2023-11-21T08:57:38;10.90;99.90
26505;DHT22;19493;48.042;7.584;2023-11-21T09:00:05;10.90;99.90
26505;DHT22;19493;48.042;7.584;2023-11-21T09:02:36;10.90;99.90
26505;DHT22;19493;48.042;7.584;2023-11-21T09:05:07;11.10;99.90
26505;DHT22;19493;48.042;7.584;2023-11-21T09:07:34;11.10;99.90
26505;DHT22;19493;48.042;7.584;2023-11-21T09:10:01;11.10;99.90
26505;DHT22;19493;48.042;7.584;2023-11-21T09:12:26;11.00;99.90
26505;DHT22;19493;48.042;7.584;2023-11-21T09:14:52;10.90;99.90
26505;DHT22;19493;48.042;7.584;2023-11-21T09:17:17;10.90;99.90
26505;DHT22;19493;48.042;7.584;2023-11-21T09:19:44;10.80;99.90
26505;DHT22;19493;48.042;7.584;2023-11-21T09:22:12;10.90;99.90
26505;DHT22;19493;48.042;7.584;2023-11-21T09:24:38;11.00;99.90
26505;DHT22;19493;48.042;7.584;2023-11-21T09:27:04;11.00;99.90
26505;DHT22;19493;48.042;7.584;2023-11-21T09:29:30;11.00;99.90
26505;DHT22;19493;48.042;7.584;2023-11-21T09:31:58;11.00;99.90
26505;DHT22;19493;48.042;7.584;2023-11-21T09:34:25;11.00;99.90
26505;DHT22;19493;48.042;7.584;2023-11-21T09:36:51;11.10;99.90
26505;DHT22;19493;48.042;7.584;2023-11-21T09:39:17;11.20;99.90
26505;DHT22;19493;48.042;7.584;2023-11-21T09:41:49;11.30;99.90
26505;DHT22;19493;48.042;7.584;2023-11-21T09:44:18;11.30;99.90
26505;DHT22;19493;48.042;7.584;2023-11-21T09:46:48;11.20;99.90
26505;DHT22;19493;48.042;7.584;2023-11-21T09:49:18;11.20;99.90
26505;DHT22;19493;48.042;7.584;2023-11-21T09:51:52;11.20;99.90
26505;DHT22;19493;48.042;7.584;2023-11-21T09:54:19;11.20;99.90
26505;DHT22;19493;48.042;7.584;2023-11-21T09:56:46;11.20;99.90
26505;DHT22;19493;48.042;7.584;2023-11-21T09:59:14;11.10;99.90
26505;DHT22;19493;48.042;7.584;2023-11-21T10:01:42;11.00;99.90
26505;DHT22;19493;48.042;7.584;2023-11-21T10:04:10;11.00;99.90
26505;DHT22;19493;48.042;7.584;2023-11-21T10:06:40;11.00;99.90
26505;DHT22;19493;48.042;7.584;2023-11-21T10:09:12;11.00;99.90
26505;DHT22;19493;48.042;7.584;2023-11-21T10:11:42;11.00;99.90
26505;DHT22;19493;48.042;7.584;2023-11-21T10:14:10;11.10;99.90
26505;DHT22;19493;48.042;7.584;2023-11-21T10:16:38;11.20;99.90
26505;DHT22;19493;48.042;7.584;2023-11-21T10:19:05;11.40;99.90
26505;DHT22;19493;48.042;7.584;2023-11-21T10:21:35;11.50;99.90
26505;DHT22;19493;48.042;7.584;2023-11-21T10:24:00;11.60;99.90
26505;DHT22;19493;48.042;7.584;2023-11-21T10:26:28;11.70;99.90
26505;DHT22;19493;48.042;7.584;2023-11-21T10:29:01;11.80;99.90
26505;DHT22;19493;48.042;7.584;2023-11-21T10:31:30;11.70;99.90
26505;DHT22;19493;48.042;7.584;2023-11-21T10:34:19;11.70;99.90
26505;DHT22;19493;48.042;7.584;2023-11-21T10:36:46;11.70;99.90
26505;DHT22;19493;48.042;7.584;2023-11-21T10:39:21;11.70;99.90
26505;DHT22;19493;48.042;7.584;2023-11-21T10:41:49;11.70;99.90
26505;DHT22;19493;48.042;7.584;2023-11-21T10:44:19;11.60;99.90
26505;DHT22;19493;48.042;7.584;2023-11-21T10:46:53;11.40;99.90
26505;DHT22;19493;48.042;7.584;2023-11-21T10:49:24;11.30;99.90
26505;DHT22;19493;48.042;7.584;2023-11-21T10:51:54;11.30;99.90
26505;DHT22;19493;48.042;7.584;2023-11-21T10:54:20;11.30;99.90
26505;DHT22;19493;48.042;7.584;2023-11-21T10:56:48;11.20;99.90
26505;DHT22;19493;48.042;7.584;2023-11-21T10:59:16;11.10;99.90
26505;DHT22;19493;48.042;7.584;2023-11-21T11:01:45;11.10;99.90
26505;DHT22;19493;48.042;7.584;2023-11-21T11:04:14;11.00;99.90
26505;DHT22;19493;48.042;7.584;2023-11-21T11:06:51;11.00;99.90
26505;DHT22;19493;48.042;7.584;2023-11-21T11:09:18;11.00;99.90
26505;DHT22;19493;48.042;7.584;2023-11-21T11:11:43;10.90;99.90
26505;DHT22;19493;48.042;7.584;2023-11-21T11:14:13;10.90;99.90
26505;DHT22;19493;48.042;7.584;2023-11-21T11:16:40;11.00;99.90
26505;DHT22;19493;48.042;7.584;2023-11-21T11:19:07;11.00;99.90
26505;DHT22;19493;48.042;7.584;2023-11-21T11:21:38;11.20;99.90
26505;DHT22;19493;48.042;7.584;2023-11-21T11:27:04;11.40;99.90
26505;DHT22;19493;48.042;7.584;2023-11-21T11:35:23;12.10;99.90
26505;DHT22;19493;48.042;7.584;2023-11-21T11:37:51;12.20;99.90
26505;DHT22;19493;48.042;7.584;2023-11-21T11:40:18;12.30;99.90
26505;DHT22;19493;48.042;7.584;2023-11-21T11:42:58;12.30;99.90
26505;DHT22;19493;48.042;7.584;2023-11-21T11:45:31;12.20;99.90
26505;DHT22;19493;48.042;7.584;2023-11-21T11:47:57;12.00;99.90
26505;DHT22;19493;48.042;7.584;2023-11-21T11:50:25;11.90;99.90
26505;DHT22;19493;48.042;7.584;2023-11-21T11:52:53;12.00;99.90
26505;DHT22;19493;48.042;7.584;2023-11-21T11:55:24;12.10;99.90
26505;DHT22;19493;48.042;7.584;2023-11-21T11:57:52;12.20;99.90
26505;DHT22;19493;48.042;7.584;2023-11-21T12:00:22;12.30;99.90
26505;DHT22;19493;48.042;7.584;2023-11-21T12:03:01;12.30;99.90
26505;DHT22;19493;48.042;7.584;2023-11-21T12:05:33;12.50;99.90
26505;DHT22;19493;48.042;7.584;2023-11-21T12:08:05;12.70;99.90
26505;DHT22;19493;48.042;7.584;2023-11-21T12:10:35;12.70;99.90
26505;DHT22;19493;48.042;7.584;2023-11-21T12:15:28;13.00;99.90
26505;DHT22;19493;48.042;7.584;2023-11-21T12:17:56;13.30;99.90
26505;DHT22;19493;48.042;7.584;2023-11-21T12:20:23;13.80;99.90
26505;DHT22;19493;48.042;7.584;2023-11-21T12:22:51;14.10;99.90
26505;DHT22;19493;48.042;7.584;2023-11-21T12:25:18;14.20;99.90
26505;DHT22;19493;48.042;7.584;2023-11-21T12:27:53;14.10;99.90
26505;DHT22;19493;48.042;7.584;2023-11-21T12:30:22;14.00;99.90
26505;DHT22;19493;48.042;7.584;2023-11-21T12:32:50;13.90;99.90
26505;DHT22;19493;48.042;7.584;2023-11-21T12:35:26;13.80;99.90
26505;DHT22;19493;48.042;7.584;2023-11-21T12:37:52;13.30;99.90
26505;DHT22;19493;48.042;7.584;2023-11-21T12:40:19;12.90;99.90
26505;DHT22;19493;48.042;7.584;2023-11-21T12:42:46;12.50;99.90
26505;DHT22;19493;48.042;7.584;2023-11-21T12:47:48;12.50;99.90
26505;DHT22;19493;48.042;7.584;2023-11-21T12:50:23;12.50;99.90
26505;DHT22;19493;48.042;7.584;2023-11-21T12:52:51;12.50;99.90
26505;DHT22;19493;48.042;7.584;2023-11-21T12:55:23;12.60;99.90
26505;DHT22;19493;48.042;7.584;2023-11-21T12:57:51;12.60;99.90
26505;DHT22;19493;48.042;7.584;2023-11-21T13:00:18;12.50;99.90
26505;DHT22;19493;48.042;7.584;2023-11-21T13:02:56;12.50;99.90
26505;DHT22;19493;48.042;7.584;2023-11-21T13:05:27;12.30;99.90
26505;DHT22;19493;48.042;7.584;2023-11-21T13:07:57;12.10;99.90
26505;DHT22;19493;48.042;7.584;2023-11-21T13:10:24;12.00;99.90
26505;DHT22;19493;48.042;7.584;2023-11-21T13:12:58;11.90;99.90
26505;DHT22;19493;48.042;7.584;2023-11-21T13:15:24;11.90;99.90
26505;DHT22;19493;48.042;7.584;2023-11-21T13:17:50;11.90;99.90
26505;DHT22;19493;48.042;7.584;2023-11-21T13:20:17;11.80;99.90
26505;DHT22;19493;48.042;7.584;2023-11-21T13:22:53;11.60;99.90
26505;DHT22;19493;48.042;7.584;2023-11-21T13:25:21;11.60;99.90
26505;DHT22;19493;48.042;7.584;2023-11-21T13:27:46;11.60;99.90
26505;DHT22;19493;48.042;7.584;2023-11-21T13:30:16;11.70;99.90
26505;DHT22;19493;48.042;7.584;2023-11-21T13:32:45;11.80;99.90
26505;DHT22;19493;48.042;7.584;2023-11-21T13:35:17;11.90;99.90
26505;DHT22;19493;48.042;7.584;2023-11-21T13:37:52;11.60;99.90
26505;DHT22;19493;48.042;7.584;2023-11-21T13:40:22;11.30;99.90
26505;DHT22;19493;48.042;7.584;2023-11-21T13:42:54;11.00;99.90
26505;DHT22;19493;48.042;7.584;2023-11-21T13:45:23;10.80;99.90
26505;DHT22;19493;48.042;7.584;2023-11-21T13:47:51;10.60;99.90
26505;DHT22;19493;48.042;7.584;2023-11-21T13:50:18;10.40;99.90
26505;DHT22;19493;48.042;7.584;2023-11-21T13:52:49;10.30;99.90
26505;DHT22;19493;48.042;7.584;2023-11-21T13:55:16;10.20;99.90
26505;DHT22;19493;48.042;7.584;2023-11-21T13:57:42;10.10;99.90
26505;DHT22;19493;48.042;7.584;2023-11-21T14:00:15;10.10;99.90
26505;DHT22;19493;48.042;7.584;2023-11-21T14:03:00;10.10;99.90
26505;DHT22;19493;48.042;7.584;2023-11-21T14:05:27;10.10;99.90
26505;DHT22;19493;48.042;7.584;2023-11-21T14:07:57;10.20;99.90
26505;DHT22;19493;48.042;7.584;2023-11-21T14:10:29;10.20;99.90
26505;DHT22;19493;48.042;7.584;2023-11-21T14:13:05;10.20;99.90
26505;DHT22;19493;48.042;7.584;2023-11-21T14:15:31;10.30;99.90
26505;DHT22;19493;48.042;7.584;2023-11-21T14:17:59;10.30;99.90
26505;DHT22;19493;48.042;7.584;2023-11-21T14:20:25;10.30;99.90
26505;DHT22;19493;48.042;7.584;2023-11-21T14:22:50;10.30;99.90
26505;DHT22;19493;48.042;7.584;2023-11-21T14:25:17;10.30;99.90
26505;DHT22;19493;48.042;7.584;2023-11-21T14:27:43;10.40;99.90
26505;DHT22;19493;48.042;7.584;2023-11-21T14:30:09;10.40;99.90
26505;DHT22;19493;48.042;7.584;2023-11-21T14:32:38;10.40;99.90
26505;DHT22;19493;48.042;7.584;2023-11-21T14:35:04;10.40;99.90
26505;DHT22;19493;48.042;7.584;2023-11-21T14:37:30;10.40;99.90
26505;DHT22;19493;48.042;7.584;2023-11-21T14:39:56;10.40;99.90
26505;DHT22;19493;48.042;7.584;2023-11-21T14:42:22;10.30;99.90
26505;DHT22;19493;48.042;7.584;2023-11-21T14:44:51;10.20;99.90
26505;DHT22;19493;48.042;7.584;2023-11-21T14:47:17;10.20;99.90
26505;DHT22;19493;48.042;7.584;2023-11-21T14:49:50;10.20;99.90
26505;DHT22;19493;48.042;7.584;2023-11-21T14:52:19;10.10;99.90
26505;DHT22;19493;48.042;7.584;2023-11-21T14:55:03;10.10;99.90
26505;DHT22;19493;48.042;7.584;2023-11-21T14:57:44;10.10;99.90
26505;DHT22;19493;48.042;7.584;2023-11-21T15:00:16;10.10;99.90
26505;DHT22;19493;48.042;7.584;2023-11-21T15:02:58;10.10;99.90
26505;DHT22;19493;48.042;7.584;2023-11-21T15:05:24;10.00;99.90
26505;DHT22;19493;48.042;7.584;2023-11-21T15:07:50;10.00;99.90
26505;DHT22;19493;48.042;7.584;2023-11-21T15:10:21;10.00;99.90
26505;DHT22;19493;48.042;7.584;2023-11-21T15:12:54;10.00;99.90
26505;DHT22;19493;48.042;7.584;2023-11-21T15:15:19;10.00;99.90
26505;DHT22;19493;48.042;7.584;2023-11-21T15:17:46;10.00;99.90
26505;DHT22;19493;48.042;7.584;2023-11-21T15:20:13;10.00;99.90
26505;DHT22;19493;48.042;7.584;2023-11-21T15:22:46;10.00;99.90
26505;DHT22;19493;48.042;7.584;2023-11-21T15:25:12;9.90;99.90
26505;DHT22;19493;48.042;7.584;2023-11-21T15:27:38;9.90;99.90
26505;DHT22;19493;48.042;7.584;2023-11-21T15:30:05;9.90;99.90
26505;DHT22;19493;48.042;7.584;2023-11-21T15:32:31;9.90;99.90
26505;DHT22;19493;48.042;7.584;2023-11-21T15:34:56;9.80;99.90
26505;DHT22;19493;48.042;7.584;2023-11-21T15:37:22;9.80;99.90
26505;DHT22;19493;48.042;7.584;2023-11-21T15:39:49;9.80;99.90
26505;DHT22;19493;48.042;7.584;2023-11-21T15:42:14;9.80;99.90
26505;DHT22;19493;48.042;7.584;2023-11-21T15:44:40;9.70;99.90
26505;DHT22;19493;48.042;7.584;2023-11-21T15:47:05;9.70;99.90
26505;DHT22;19493;48.042;7.584;2023-11-21T15:49:34;9.70;99.90
26505;DHT22;19493;48.042;7.584;2023-11-21T15:52:05;9.70;99.90
26505;DHT22;19493;48.042;7.584;2023-11-21T15:54:31;9.70;99.90
26505;DHT22;19493;48.042;7.584;2023-11-21T15:57:00;9.70;99.90